DLH349 EDDF-EDDS
Flight info
| Callsign | DLH349 |
|---|---|
| Flight time | 0h 35m |
| Altitude | 17000 |
| Route | ANEKI2L/18 ANEKI Y163 NEKLO Y171 INKAM N850 KRH T128 BADSO BADSO2A |
| Aircraft | A319/M-SDE2E3FGIJ1LORWXYZ/HB1 |
Departure
| Time | 2026-05-05 18:49 |
|---|---|
| Airport | Frankfurt Main Airport (EDDF) |
Arrival
| Time | 2026-05-05 19:24 |
|---|---|
| Airport | Stuttgart Airport (EDDS) |
| Time | Latitude | Longitude | Altitude | Speed | Heading |
|---|---|---|---|---|---|
| 2026-05-05 18:12 | 50.04903 | 8.59109 | 369 ft | 0 kts | 339° |
| 2026-05-05 18:29 | 50.04897 | 8.59112 | 368 ft | 4 kts | 339° |
| 2026-05-05 18:29 | 50.04871 | 8.59127 | 370 ft | 4 kts | 339° |
| 2026-05-05 18:29 | 50.04846 | 8.59141 | 367 ft | 4 kts | 339° |
| 2026-05-05 18:30 | 50.04828 | 8.59152 | 368 ft | 0 kts | 339° |
| 2026-05-05 18:33 | 50.04831 | 8.59153 | 369 ft | 0 kts | 5° |
| 2026-05-05 18:34 | 50.04832 | 8.59156 | 369 ft | 0 kts | 29° |
| 2026-05-05 18:34 | 50.04834 | 8.59175 | 370 ft | 3 kts | 73° |
| 2026-05-05 18:34 | 50.04846 | 8.59258 | 372 ft | 10 kts | 75° |
| 2026-05-05 18:34 | 50.04867 | 8.59362 | 370 ft | 10 kts | 74° |
| 2026-05-05 18:35 | 50.04858 | 8.59456 | 373 ft | 3 kts | 124° |
| 2026-05-05 18:35 | 50.04855 | 8.59462 | 372 ft | 0 kts | 129° |
| 2026-05-05 18:35 | 50.04855 | 8.59463 | 372 ft | 0 kts | 129° |
| 2026-05-05 18:35 | 50.04841 | 8.59485 | 370 ft | 6 kts | 134° |
| 2026-05-05 18:36 | 50.04804 | 8.59538 | 370 ft | 8 kts | 141° |
| 2026-05-05 18:36 | 50.04757 | 8.59583 | 373 ft | 9 kts | 156° |
| 2026-05-05 18:36 | 50.04652 | 8.59622 | 375 ft | 20 kts | 176° |
| 2026-05-05 18:36 | 50.04515 | 8.59627 | 376 ft | 17 kts | 178° |
| 2026-05-05 18:37 | 50.04425 | 8.59631 | 376 ft | 12 kts | 180° |
| 2026-05-05 18:37 | 50.04407 | 8.59631 | 376 ft | 0 kts | 179° |
| 2026-05-05 18:38 | 50.04365 | 8.59634 | 376 ft | 23 kts | 176° |
| 2026-05-05 18:38 | 50.04175 | 8.59623 | 375 ft | 28 kts | 197° |
| 2026-05-05 18:39 | 50.04005 | 8.59518 | 374 ft | 26 kts | 208° |
| 2026-05-05 18:39 | 50.03876 | 8.59310 | 367 ft | 28 kts | 239° |
| 2026-05-05 18:39 | 50.03805 | 8.59028 | 371 ft | 28 kts | 250° |
| 2026-05-05 18:39 | 50.03741 | 8.58740 | 360 ft | 27 kts | 251° |
| 2026-05-05 18:40 | 50.03677 | 8.58457 | 365 ft | 28 kts | 249° |
| 2026-05-05 18:40 | 50.03610 | 8.58187 | 360 ft | 25 kts | 250° |
| 2026-05-05 18:40 | 50.03557 | 8.57967 | 361 ft | 21 kts | 250° |
| 2026-05-05 18:40 | 50.03504 | 8.57746 | 362 ft | 23 kts | 250° |
| 2026-05-05 18:41 | 50.03449 | 8.57512 | 355 ft | 23 kts | 249° |
| 2026-05-05 18:41 | 50.03391 | 8.57272 | 354 ft | 24 kts | 249° |
| 2026-05-05 18:41 | 50.03332 | 8.57026 | 358 ft | 24 kts | 249° |
| 2026-05-05 18:41 | 50.03309 | 8.56811 | 356 ft | 17 kts | 321° |
| 2026-05-05 18:42 | 50.03337 | 8.56663 | 351 ft | 17 kts | 249° |
| 2026-05-05 18:42 | 50.03293 | 8.56479 | 353 ft | 19 kts | 250° |
| 2026-05-05 18:42 | 50.03248 | 8.56284 | 349 ft | 19 kts | 250° |
| 2026-05-05 18:42 | 50.03201 | 8.56084 | 351 ft | 20 kts | 249° |
| 2026-05-05 18:43 | 50.03150 | 8.55876 | 348 ft | 21 kts | 249° |
| 2026-05-05 18:43 | 50.03095 | 8.55654 | 347 ft | 23 kts | 249° |
| 2026-05-05 18:43 | 50.03040 | 8.55421 | 350 ft | 23 kts | 250° |
| 2026-05-05 18:43 | 50.02984 | 8.55181 | 338 ft | 24 kts | 250° |
| 2026-05-05 18:44 | 50.02926 | 8.54937 | 338 ft | 24 kts | 249° |
| 2026-05-05 18:44 | 50.02867 | 8.54691 | 337 ft | 25 kts | 249° |
| 2026-05-05 18:44 | 50.02806 | 8.54442 | 338 ft | 25 kts | 249° |
| 2026-05-05 18:44 | 50.02744 | 8.54188 | 335 ft | 26 kts | 249° |
| 2026-05-05 18:45 | 50.02681 | 8.53926 | 333 ft | 27 kts | 249° |
| 2026-05-05 18:45 | 50.02589 | 8.53686 | 334 ft | 26 kts | 216° |
| 2026-05-05 18:45 | 50.02492 | 8.53471 | 336 ft | 25 kts | 249° |
| 2026-05-05 18:45 | 50.02432 | 8.53221 | 335 ft | 25 kts | 248° |
| 2026-05-05 18:46 | 50.02371 | 8.52966 | 334 ft | 25 kts | 251° |
| 2026-05-05 18:46 | 50.02332 | 8.52798 | 334 ft | 12 kts | 249° |
| 2026-05-05 18:46 | 50.02323 | 8.52762 | 331 ft | 0 kts | 248° |
| 2026-05-05 18:47 | 50.02314 | 8.52725 | 333 ft | 10 kts | 251° |
| 2026-05-05 18:47 | 50.02283 | 8.52620 | 334 ft | 11 kts | 224° |
| 2026-05-05 18:47 | 50.02237 | 8.52606 | 335 ft | 0 kts | 180° |
| 2026-05-05 18:48 | 50.02119 | 8.52607 | 335 ft | 53 kts | 179° |
| 2026-05-05 18:48 | 50.01492 | 8.52613 | 331 ft | 125 kts | 180° |
| 2026-05-05 18:49 | 50.00451 | 8.52607 | 566 ft | 155 kts | 180° |
| 2026-05-05 18:49 | 49.99431 | 8.52634 | 1472 ft | 139 kts | 181° |
| 2026-05-05 18:49 | 49.98440 | 8.52704 | 1901 ft | 157 kts | 180° |
| 2026-05-05 18:49 | 49.97260 | 8.52795 | 2250 ft | 182 kts | 180° |
| 2026-05-05 18:50 | 49.95915 | 8.52894 | 2637 ft | 207 kts | 180° |
| 2026-05-05 18:50 | 49.94401 | 8.53004 | 3215 ft | 225 kts | 180° |
| 2026-05-05 18:50 | 49.92826 | 8.53119 | 4150 ft | 228 kts | 180° |
| 2026-05-05 18:50 | 49.91235 | 8.53236 | 5159 ft | 230 kts | 180° |
| 2026-05-05 18:51 | 49.89627 | 8.53354 | 6117 ft | 232 kts | 180° |
| 2026-05-05 18:51 | 49.88002 | 8.53470 | 7017 ft | 235 kts | 180° |
| 2026-05-05 18:51 | 49.86353 | 8.53586 | 7904 ft | 239 kts | 180° |
| 2026-05-05 18:51 | 49.84679 | 8.53701 | 8815 ft | 242 kts | 180° |
| 2026-05-05 18:52 | 49.82983 | 8.53817 | 9745 ft | 246 kts | 180° |
| 2026-05-05 18:52 | 49.81264 | 8.53933 | 10579 ft | 249 kts | 180° |
| 2026-05-05 18:52 | 49.79523 | 8.54053 | 11414 ft | 252 kts | 180° |
| 2026-05-05 18:52 | 49.77769 | 8.54407 | 12231 ft | 260 kts | 164° |
| 2026-05-05 18:53 | 49.76074 | 8.55658 | 12697 ft | 283 kts | 152° |
| 2026-05-05 18:53 | 49.74356 | 8.57399 | 13002 ft | 308 kts | 148° |
| 2026-05-05 18:53 | 49.72539 | 8.59385 | 13296 ft | 330 kts | 147° |
| 2026-05-05 18:53 | 49.70624 | 8.61445 | 13894 ft | 339 kts | 148° |
| 2026-05-05 18:54 | 49.68643 | 8.63479 | 14607 ft | 343 kts | 149° |
| 2026-05-05 18:54 | 49.66620 | 8.65462 | 15349 ft | 346 kts | 150° |
| 2026-05-05 18:54 | 49.64558 | 8.67408 | 16100 ft | 349 kts | 151° |
| 2026-05-05 18:54 | 49.62459 | 8.69340 | 16647 ft | 357 kts | 151° |
| 2026-05-05 18:55 | 49.60262 | 8.71343 | 16811 ft | 377 kts | 152° |
| 2026-05-05 18:55 | 49.57940 | 8.73459 | 16840 ft | 396 kts | 151° |
| 2026-05-05 18:55 | 49.55582 | 8.75618 | 16839 ft | 402 kts | 151° |
| 2026-05-05 18:55 | 49.53176 | 8.77832 | 16840 ft | 403 kts | 151° |
| 2026-05-05 18:56 | 49.50770 | 8.80052 | 16839 ft | 404 kts | 151° |
| 2026-05-05 18:56 | 49.48361 | 8.82272 | 16840 ft | 404 kts | 151° |
| 2026-05-05 18:56 | 49.45952 | 8.84487 | 16841 ft | 403 kts | 151° |
| 2026-05-05 18:56 | 49.43543 | 8.86695 | 16795 ft | 404 kts | 151° |
| 2026-05-05 18:57 | 49.41134 | 8.88899 | 16534 ft | 402 kts | 151° |
| 2026-05-05 18:57 | 49.38734 | 8.91096 | 16271 ft | 402 kts | 151° |
| 2026-05-05 18:57 | 49.36337 | 8.93290 | 16007 ft | 400 kts | 151° |
| 2026-05-05 18:57 | 49.33952 | 8.95469 | 15747 ft | 397 kts | 151° |
| 2026-05-05 18:58 | 49.31608 | 8.97611 | 15486 ft | 387 kts | 151° |
| 2026-05-05 18:58 | 49.29333 | 8.99690 | 15239 ft | 375 kts | 152° |
| 2026-05-05 18:58 | 49.27126 | 9.01703 | 14994 ft | 363 kts | 152° |
| 2026-05-05 18:58 | 49.24990 | 9.03646 | 14831 ft | 350 kts | 152° |
| 2026-05-05 18:59 | 49.22944 | 9.05505 | 14838 ft | 333 kts | 152° |
| 2026-05-05 18:59 | 49.20996 | 9.07274 | 14832 ft | 318 kts | 152° |
| 2026-05-05 18:59 | 49.19090 | 9.09002 | 14371 ft | 320 kts | 152° |
| 2026-05-05 18:59 | 49.17171 | 9.10738 | 13892 ft | 322 kts | 153° |
| 2026-05-05 19:00 | 49.15236 | 9.12485 | 13385 ft | 323 kts | 153° |
| 2026-05-05 19:00 | 49.13297 | 9.14238 | 12854 ft | 325 kts | 153° |
| 2026-05-05 19:00 | 49.11351 | 9.15997 | 12331 ft | 325 kts | 153° |
| 2026-05-05 19:00 | 49.09405 | 9.17751 | 11846 ft | 324 kts | 153° |
| 2026-05-05 19:01 | 49.07475 | 9.19490 | 11468 ft | 320 kts | 153° |
| 2026-05-05 19:01 | 49.05566 | 9.21211 | 11094 ft | 317 kts | 153° |
| 2026-05-05 19:01 | 49.03681 | 9.22913 | 10722 ft | 313 kts | 153° |
| 2026-05-05 19:01 | 49.01938 | 9.24886 | 10356 ft | 316 kts | 136° |
| 2026-05-05 19:02 | 49.00791 | 9.27748 | 9982 ft | 320 kts | 117° |
| 2026-05-05 19:02 | 48.99984 | 9.30894 | 9611 ft | 318 kts | 114° |
| 2026-05-05 19:02 | 48.99216 | 9.34040 | 9217 ft | 316 kts | 114° |
| 2026-05-05 19:02 | 48.98460 | 9.37153 | 8865 ft | 311 kts | 114° |
| 2026-05-05 19:03 | 48.97718 | 9.40214 | 8558 ft | 306 kts | 114° |
| 2026-05-05 19:03 | 48.96989 | 9.43220 | 8239 ft | 301 kts | 114° |
| 2026-05-05 19:03 | 48.96259 | 9.46174 | 7909 ft | 296 kts | 117° |
| 2026-05-05 19:03 | 48.95113 | 9.48660 | 7532 ft | 283 kts | 144° |
| 2026-05-05 19:04 | 48.93479 | 9.50108 | 7136 ft | 273 kts | 162° |
| 2026-05-05 19:04 | 48.91696 | 9.51193 | 6722 ft | 272 kts | 164° |
| 2026-05-05 19:04 | 48.89960 | 9.52210 | 6394 ft | 268 kts | 164° |
| 2026-05-05 19:04 | 48.88235 | 9.53228 | 6267 ft | 257 kts | 164° |
| 2026-05-05 19:05 | 48.86605 | 9.54196 | 6147 ft | 247 kts | 164° |
| 2026-05-05 19:05 | 48.85034 | 9.55130 | 6036 ft | 240 kts | 164° |
| 2026-05-05 19:05 | 48.83508 | 9.56039 | 6007 ft | 238 kts | 164° |
| 2026-05-05 19:05 | 48.81947 | 9.56972 | 6019 ft | 238 kts | 164° |
| 2026-05-05 19:06 | 48.80406 | 9.57896 | 6013 ft | 238 kts | 164° |
| 2026-05-05 19:06 | 48.78843 | 9.58343 | 6021 ft | 229 kts | 188° |
| 2026-05-05 19:06 | 48.77321 | 9.57805 | 6011 ft | 222 kts | 207° |
| 2026-05-05 19:06 | 48.76064 | 9.56572 | 5789 ft | 214 kts | 225° |
| 2026-05-05 19:07 | 48.75166 | 9.54753 | 5330 ft | 218 kts | 245° |
| 2026-05-05 19:07 | 48.74688 | 9.52590 | 5001 ft | 214 kts | 254° |
| 2026-05-05 19:07 | 48.74290 | 9.50438 | 4720 ft | 211 kts | 254° |
| 2026-05-05 19:07 | 48.73894 | 9.48304 | 4422 ft | 209 kts | 254° |
| 2026-05-05 19:08 | 48.73491 | 9.46149 | 4155 ft | 233 kts | 254° |
| 2026-05-05 19:08 | 48.72996 | 9.43497 | 4183 ft | 272 kts | 254° |
| 2026-05-05 19:08 | 48.72586 | 9.40798 | 5256 ft | 248 kts | 265° |
| 2026-05-05 19:08 | 48.72894 | 9.38379 | 5693 ft | 232 kts | 293° |
| 2026-05-05 19:09 | 48.73974 | 9.36569 | 5926 ft | 238 kts | 319° |
| 2026-05-05 19:09 | 48.75371 | 9.35207 | 5994 ft | 239 kts | 323° |
| 2026-05-05 19:09 | 48.76799 | 9.33912 | 5999 ft | 239 kts | 324° |
| 2026-05-05 19:09 | 48.78236 | 9.32631 | 6002 ft | 240 kts | 324° |
| 2026-05-05 19:10 | 48.79672 | 9.31350 | 6009 ft | 240 kts | 324° |
| 2026-05-05 19:10 | 48.81108 | 9.30067 | 6006 ft | 239 kts | 324° |
| 2026-05-05 19:10 | 48.82674 | 9.29164 | 6005 ft | 248 kts | 349° |
| 2026-05-05 19:10 | 48.84401 | 9.29561 | 6006 ft | 259 kts | 21° |
| 2026-05-05 19:11 | 48.85820 | 9.31251 | 6012 ft | 264 kts | 53° |
| 2026-05-05 19:11 | 48.86618 | 9.33753 | 6008 ft | 264 kts | 72° |
| 2026-05-05 19:11 | 48.87192 | 9.36405 | 6009 ft | 265 kts | 74° |
| 2026-05-05 19:11 | 48.87742 | 9.39076 | 6014 ft | 265 kts | 74° |
| 2026-05-05 19:12 | 48.88283 | 9.41751 | 6007 ft | 265 kts | 74° |
| 2026-05-05 19:12 | 48.88818 | 9.44427 | 6012 ft | 265 kts | 74° |
| 2026-05-05 19:12 | 48.89352 | 9.47102 | 6010 ft | 265 kts | 74° |
| 2026-05-05 19:12 | 48.89884 | 9.49786 | 6014 ft | 265 kts | 74° |
| 2026-05-05 19:13 | 48.90415 | 9.52464 | 6014 ft | 265 kts | 74° |
| 2026-05-05 19:13 | 48.90948 | 9.55142 | 6018 ft | 265 kts | 74° |
| 2026-05-05 19:13 | 48.91478 | 9.57814 | 6015 ft | 263 kts | 74° |
| 2026-05-05 19:13 | 48.91726 | 9.60537 | 6010 ft | 260 kts | 99° |
| 2026-05-05 19:14 | 48.91114 | 9.63042 | 6007 ft | 251 kts | 131° |
| 2026-05-05 19:14 | 48.89817 | 9.64677 | 6009 ft | 240 kts | 159° |
| 2026-05-05 19:14 | 48.88298 | 9.65709 | 5955 ft | 238 kts | 163° |
| 2026-05-05 19:14 | 48.86769 | 9.66654 | 5624 ft | 237 kts | 164° |
| 2026-05-05 19:15 | 48.85229 | 9.67524 | 5293 ft | 234 kts | 172° |
| 2026-05-05 19:15 | 48.83682 | 9.67404 | 5060 ft | 218 kts | 206° |
| 2026-05-05 19:15 | 48.82426 | 9.66154 | 5016 ft | 217 kts | 222° |
| 2026-05-05 19:15 | 48.81274 | 9.64656 | 5021 ft | 219 kts | 224° |
| 2026-05-05 19:16 | 48.80170 | 9.63181 | 5011 ft | 204 kts | 224° |
| 2026-05-05 19:16 | 48.79141 | 9.61812 | 5014 ft | 190 kts | 224° |
| 2026-05-05 19:16 | 48.78172 | 9.60529 | 4939 ft | 181 kts | 224° |
| 2026-05-05 19:16 | 48.77233 | 9.59301 | 4817 ft | 175 kts | 224° |
| 2026-05-05 19:17 | 48.76327 | 9.58122 | 4689 ft | 169 kts | 224° |
| 2026-05-05 19:17 | 48.75560 | 9.56864 | 4462 ft | 163 kts | 242° |
| 2026-05-05 19:17 | 48.75182 | 9.55235 | 4200 ft | 163 kts | 254° |
| 2026-05-05 19:17 | 48.74877 | 9.53593 | 4048 ft | 161 kts | 253° |
| 2026-05-05 19:18 | 48.74582 | 9.52003 | 4002 ft | 149 kts | 253° |
| 2026-05-05 19:18 | 48.74314 | 9.50561 | 4003 ft | 137 kts | 253° |
| 2026-05-05 19:18 | 48.74060 | 9.49199 | 4009 ft | 133 kts | 253° |
| 2026-05-05 19:18 | 48.73810 | 9.47861 | 4010 ft | 132 kts | 253° |
| 2026-05-05 19:19 | 48.73562 | 9.46531 | 4011 ft | 131 kts | 253° |
| 2026-05-05 19:19 | 48.73314 | 9.45207 | 3933 ft | 131 kts | 253° |
| 2026-05-05 19:19 | 48.73065 | 9.43875 | 3799 ft | 131 kts | 253° |
| 2026-05-05 19:19 | 48.72816 | 9.42546 | 3649 ft | 129 kts | 253° |
| 2026-05-05 19:20 | 48.72573 | 9.41247 | 3491 ft | 128 kts | 253° |
| 2026-05-05 19:20 | 48.72331 | 9.39956 | 3324 ft | 127 kts | 253° |
| 2026-05-05 19:20 | 48.72090 | 9.38671 | 3157 ft | 126 kts | 253° |
| 2026-05-05 19:20 | 48.71853 | 9.37409 | 2974 ft | 126 kts | 253° |
| 2026-05-05 19:21 | 48.71614 | 9.36133 | 2812 ft | 126 kts | 253° |
| 2026-05-05 19:21 | 48.71371 | 9.34843 | 2639 ft | 125 kts | 253° |
| 2026-05-05 19:21 | 48.71133 | 9.33576 | 2483 ft | 126 kts | 253° |
| 2026-05-05 19:21 | 48.70897 | 9.32321 | 2316 ft | 125 kts | 252° |
| 2026-05-05 19:22 | 48.70658 | 9.31054 | 2137 ft | 126 kts | 253° |
| 2026-05-05 19:22 | 48.70417 | 9.29772 | 1958 ft | 128 kts | 253° |
| 2026-05-05 19:22 | 48.70171 | 9.28469 | 1781 ft | 129 kts | 254° |
| 2026-05-05 19:22 | 48.69925 | 9.27161 | 1630 ft | 128 kts | 252° |
| 2026-05-05 19:23 | 48.69671 | 9.25856 | 1454 ft | 130 kts | 252° |
| 2026-05-05 19:23 | 48.69427 | 9.24543 | 1287 ft | 129 kts | 253° |
| 2026-05-05 19:23 | 48.69266 | 9.23677 | 1207 ft | 119 kts | 254° |
| 2026-05-05 19:23 | 48.69082 | 9.22673 | 1223 ft | 81 kts | 254° |
| 2026-05-05 19:24 | 48.68948 | 9.21974 | 1245 ft | 59 kts | 253° |
| 2026-05-05 19:24 | 48.68846 | 9.21444 | 1264 ft | 49 kts | 253° |
| 2026-05-05 19:24 | 48.68754 | 9.20974 | 1268 ft | 46 kts | 253° |
| 2026-05-05 19:24 | 48.68681 | 9.20523 | 1273 ft | 42 kts | 261° |
| 2026-05-05 19:25 | 48.68709 | 9.20197 | 1282 ft | 28 kts | 282° |
| 2026-05-05 19:25 | 48.68718 | 9.20127 | 1289 ft | 0 kts | 282° |
| 2026-05-05 19:25 | 48.68719 | 9.20119 | 1286 ft | 3 kts | 283° |
| 2026-05-05 19:26 | 48.68738 | 9.20047 | 1289 ft | 12 kts | 296° |
| 2026-05-05 19:26 | 48.68761 | 9.19887 | 1295 ft | 20 kts | 261° |
| 2026-05-05 19:26 | 48.68721 | 9.19651 | 1302 ft | 25 kts | 252° |
| 2026-05-05 19:26 | 48.68675 | 9.19415 | 1309 ft | 22 kts | 253° |
| 2026-05-05 19:27 | 48.68647 | 9.19203 | 1314 ft | 19 kts | 291° |
| 2026-05-05 19:27 | 48.68744 | 9.19152 | 1318 ft | 15 kts | 22° |
| 2026-05-05 19:27 | 48.68791 | 9.19298 | 1315 ft | 17 kts | 75° |
| 2026-05-05 19:27 | 48.68835 | 9.19380 | 1314 ft | 8 kts | 347° |
| 2026-05-05 19:28 | 48.68881 | 9.19360 | 1315 ft | 2 kts | 344° |
| 2026-05-05 19:28 | 48.68885 | 9.19358 | 1315 ft | 0 kts | 343° |